Houwa Maru — JL6394 — position and weather

sailwx.info

Track history (hours):
 
Tides and Currents Weather Stations Pressure Air Temp Water Temp Dewpoint Dewpoint Depression Visibility Wind Speed Wind Dir Waves Ship Positions

Houwa Maru

Last reported at 2015-Jun-24 10:20 UTC. Time now 2015-Jul-02 08:04 UTC.
Position N 35°16' E 139°46'.

Length 76 m.

Type: Ship. MMSI: 431500378.

Date/timePositionNaut miles runAvg speedWind from/ knotsBaromVisibWave heightAir tempDewpointWater temp
2015-Jun-24 10:20N 35°16' E 139°46'8 9.9
2015-Jun-24 09:33N 35°23' E 139°42'1010.0
2015-Jun-24 08:33N 35°30' E 139°51'1010.1
2015-Jun-24 07:33N 35°34' E 140°03'3 3.0
2015-Jun-24 06:29N 35°33' E 140°07'0 0.0
2015-Jun-24 05:32N 35°33' E 140°07'0 0.0
2015-Jun-24 04:29N 35°33' E 140°07'0 0.0
2015-Jun-24 03:20N 35°33' E 140°07'0 0.0
2015-Jun-24 02:29N 35°33' E 140°07'0 0.0
2015-Jun-24 01:32N 35°33' E 140°07'0 0.0
2015-Jun-24 00:29N 35°33' E 140°07'0 0.0
2015-Jun-23 23:29N 35°33' E 140°07'0 0.0
2015-Jun-23 22:29N 35°33' E 140°07'0 0.0
2015-Jun-23 20:23N 35°33' E 140°07'0 0.0
2015-Jun-23 19:20N 35°33' E 140°07'0 0.0
2015-Jun-23 19:05N 35°33' E 140°07'10 0.4
2015-Jun-22 19:31N 35°41' E 139°59'0 0.0
2015-Jun-22 18:22N 35°41' E 139°59'0 0.0
2015-Jun-22 17:04N 35°41' E 139°59'0 0.0
2015-Jun-22 16:16N 35°41' E 139°59'0 0.0
2015-Jun-22 15:31N 35°41' E 139°59'0 0.0
2015-Jun-22 14:22N 35°41' E 139°59'0 0.0
2015-Jun-22 13:31N 35°41' E 139°59'0 0.0
2015-Jun-22 12:16N 35°41' E 139°59'0 0.0
2015-Jun-22 11:31N 35°41' E 139°59'0 0.0
2015-Jun-22 10:22N 35°41' E 139°59'0 0.0
2015-Jun-22 09:28N 35°41' E 139°59'0 0.0
2015-Jun-22 08:28N 35°41' E 139°59'0 0.0
2015-Jun-22 07:28N 35°41' E 139°59'0 0.0
2015-Jun-22 06:28N 35°41' E 139°59'0 0.0
2015-Jun-22 05:28N 35°41' E 139°59'0 0.0
2015-Jun-22 04:28N 35°41' E 139°59'0 0.0
2015-Jun-22 03:28N 35°41' E 139°59'0 0.0
2015-Jun-22 02:22N 35°41' E 139°59'0 0.0
2015-Jun-22 01:22N 35°41' E 139°59'3 3.2
2015-Jun-22 00:30N 35°38' E 139°59'2 1.4
2015-Jun-21 23:25N 35°37' E 139°58'0 0.0
2015-Jun-21 22:25N 35°37' E 139°58'0 0.0
2015-Jun-21 21:31N 35°37' E 139°58'0 0.0
2015-Jun-21 20:31N 35°37' E 139°58'0 0.0
2015-Jun-21 19:31N 35°37' E 139°58'0 0.1
2015-Jun-21 18:31N 35°37' E 139°58'0 0.0
2015-Jun-21 17:31N 35°37' E 139°58'0 0.0
2015-Jun-21 16:31N 35°37' E 139°58'0 0.0
2015-Jun-21 15:28N 35°36' E 139°58'0 0.0
2015-Jun-21 14:25N 35°36' E 139°58'0 0.1
2015-Jun-21 13:31N 35°37' E 139°58'0 0.0
2015-Jun-21 12:31N 35°37' E 139°58'0 0.0
2015-Jun-21 11:28N 35°37' E 139°58'0 0.0
2015-Jun-21 10:31N 35°37' E 139°58'0 0.0
2015-Jun-21 09:28N 35°37' E 139°58'0 0.0
2015-Jun-21 08:28N 35°37' E 139°58'0 0.0
2015-Jun-21 07:31N 35°37' E 139°58'0 0.0
2015-Jun-21 06:31N 35°37' E 139°58'0 0.0
2015-Jun-21 05:31N 35°37' E 139°58'0 0.0
2015-Jun-21 04:31N 35°37' E 139°58'0 0.0
2015-Jun-21 03:31N 35°37' E 139°58'0 0.0
2015-Jun-21 02:31N 35°37' E 139°58'0 0.0
2015-Jun-21 01:31N 35°37' E 139°58'0 0.0
2015-Jun-21 00:31N 35°37' E 139°58'0 0.0
2015-Jun-20 23:31N 35°37' E 139°58'0 0.0
2015-Jun-20 22:31N 35°37' E 139°58'0 0.0
2015-Jun-20 21:28N 35°37' E 139°58'0 0.0
2015-Jun-20 20:28N 35°37' E 139°58'0 0.0
2015-Jun-20 19:31N 35°37' E 139°58'0 0.0
2015-Jun-20 18:31N 35°37' E 139°58'2 2.2
2015-Jun-20 17:30N 35°35' E 139°56'1311.8
2015-Jun-20 16:24N 35°25' E 139°47'910.2
2015-Jun-20 15:33N 35°16' E 139°46'1110.2
2015-Jun-20 14:31N 35°06' E 139°43'  
Track history (hours):
 
Tides and Currents Weather Stations Pressure Air Temp Water Temp Dewpoint Dewpoint Depression Visibility Wind Speed Wind Dir Waves Ship Positions

Houwa Maru

Last reported at 2015-Jun-24 10:20 UTC. Time now 2015-Jul-02 08:04 UTC.
Position N 35°16' E 139°46'.

Length 76 m.

Type: Ship. MMSI: 431500378.

Date/timePositionNaut miles runAvg speedWind from/ knotsBaromVisibWave heightAir tempDewpointWater temp
2015-Jun-24 10:20N 35°16' E 139°46'8 9.9
2015-Jun-24 09:33N 35°23' E 139°42'1010.0
2015-Jun-24 08:33N 35°30' E 139°51'1010.1
2015-Jun-24 07:33N 35°34' E 140°03'3 3.0
2015-Jun-24 06:29N 35°33' E 140°07'0 0.0
2015-Jun-24 05:32N 35°33' E 140°07'0 0.0
2015-Jun-24 04:29N 35°33' E 140°07'0 0.0
2015-Jun-24 03:20N 35°33' E 140°07'0 0.0
2015-Jun-24 02:29N 35°33' E 140°07'0 0.0
2015-Jun-24 01:32N 35°33' E 140°07'0 0.0
2015-Jun-24 00:29N 35°33' E 140°07'0 0.0
2015-Jun-23 23:29N 35°33' E 140°07'0 0.0
2015-Jun-23 22:29N 35°33' E 140°07'0 0.0
2015-Jun-23 20:23N 35°33' E 140°07'0 0.0
2015-Jun-23 19:20N 35°33' E 140°07'0 0.0
2015-Jun-23 19:05N 35°33' E 140°07'10 0.4
2015-Jun-22 19:31N 35°41' E 139°59'0 0.0
2015-Jun-22 18:22N 35°41' E 139°59'0 0.0
2015-Jun-22 17:04N 35°41' E 139°59'0 0.0
2015-Jun-22 16:16N 35°41' E 139°59'0 0.0
2015-Jun-22 15:31N 35°41' E 139°59'0 0.0
2015-Jun-22 14:22N 35°41' E 139°59'0 0.0
2015-Jun-22 13:31N 35°41' E 139°59'0 0.0
2015-Jun-22 12:16N 35°41' E 139°59'0 0.0
2015-Jun-22 11:31N 35°41' E 139°59'0 0.0
2015-Jun-22 10:22N 35°41' E 139°59'0 0.0
2015-Jun-22 09:28N 35°41' E 139°59'0 0.0
2015-Jun-22 08:28N 35°41' E 139°59'0 0.0
2015-Jun-22 07:28N 35°41' E 139°59'0 0.0
2015-Jun-22 06:28N 35°41' E 139°59'0 0.0
2015-Jun-22 05:28N 35°41' E 139°59'0 0.0
2015-Jun-22 04:28N 35°41' E 139°59'0 0.0
2015-Jun-22 03:28N 35°41' E 139°59'0 0.0
2015-Jun-22 02:22N 35°41' E 139°59'0 0.0
2015-Jun-22 01:22N 35°41' E 139°59'3 3.2
2015-Jun-22 00:30N 35°38' E 139°59'2 1.4
2015-Jun-21 23:25N 35°37' E 139°58'0 0.0
2015-Jun-21 22:25N 35°37' E 139°58'0 0.0
2015-Jun-21 21:31N 35°37' E 139°58'0 0.0
2015-Jun-21 20:31N 35°37' E 139°58'0 0.0
2015-Jun-21 19:31N 35°37' E 139°58'0 0.1
2015-Jun-21 18:31N 35°37' E 139°58'0 0.0
2015-Jun-21 17:31N 35°37' E 139°58'0 0.0
2015-Jun-21 16:31N 35°37' E 139°58'0 0.0
2015-Jun-21 15:28N 35°36' E 139°58'0 0.0
2015-Jun-21 14:25N 35°36' E 139°58'0 0.1
2015-Jun-21 13:31N 35°37' E 139°58'0 0.0
2015-Jun-21 12:31N 35°37' E 139°58'0 0.0
2015-Jun-21 11:28N 35°37' E 139°58'0 0.0
2015-Jun-21 10:31N 35°37' E 139°58'0 0.0
2015-Jun-21 09:28N 35°37' E 139°58'0 0.0
2015-Jun-21 08:28N 35°37' E 139°58'0 0.0
2015-Jun-21 07:31N 35°37' E 139°58'0 0.0
2015-Jun-21 06:31N 35°37' E 139°58'0 0.0
2015-Jun-21 05:31N 35°37' E 139°58'0 0.0
2015-Jun-21 04:31N 35°37' E 139°58'0 0.0
2015-Jun-21 03:31N 35°37' E 139°58'0 0.0
2015-Jun-21 02:31N 35°37' E 139°58'0 0.0
2015-Jun-21 01:31N 35°37' E 139°58'0 0.0
2015-Jun-21 00:31N 35°37' E 139°58'0 0.0
2015-Jun-20 23:31N 35°37' E 139°58'0 0.0
2015-Jun-20 22:31N 35°37' E 139°58'0 0.0
2015-Jun-20 21:28N 35°37' E 139°58'0 0.0
2015-Jun-20 20:28N 35°37' E 139°58'0 0.0
2015-Jun-20 19:31N 35°37' E 139°58'0 0.0
2015-Jun-20 18:31N 35°37' E 139°58'2 2.2
2015-Jun-20 17:30N 35°35' E 139°56'1311.8
2015-Jun-20 16:24N 35°25' E 139°47'910.2
2015-Jun-20 15:33N 35°16' E 139°46'1110.2
2015-Jun-20 14:31N 35°06' E 139°43'  

Dump ship's entire track history